createdAt,value
2022-08-10T00:00:28.042Z,16.62
2022-08-10T00:01:28.016Z,16.65
2022-08-10T00:02:27.975Z,16.65
2022-08-10T00:03:27.964Z,16.62
2022-08-10T00:04:27.950Z,16.60
2022-08-10T00:05:27.939Z,16.57
2022-08-10T00:06:27.929Z,16.59
2022-08-10T00:07:27.917Z,16.55
2022-08-10T00:08:27.905Z,16.57
2022-08-10T00:09:27.897Z,16.51
2022-08-10T00:10:27.883Z,16.45
2022-08-10T00:11:27.871Z,16.42
2022-08-10T00:12:53.700Z,16.48
2022-08-10T00:13:27.849Z,16.51
2022-08-10T00:14:27.843Z,16.45
2022-08-10T00:15:51.870Z,16.47
2022-08-10T00:16:28.843Z,16.45
2022-08-10T00:17:27.805Z,16.44
2022-08-10T00:18:35.040Z,16.42
2022-08-10T00:19:27.784Z,16.41
2022-08-10T00:20:28.831Z,16.44
2022-08-10T00:21:27.760Z,16.37
2022-08-10T00:22:27.812Z,16.25
2022-08-10T00:23:27.739Z,16.26
2022-08-10T00:24:27.730Z,16.27
2022-08-10T00:25:27.728Z,16.27
2022-08-10T00:27:52.278Z,16.13
2022-08-10T00:27:58.568Z,16.23
2022-08-10T00:28:28.851Z,16.10
2022-08-10T00:29:27.669Z,16.18
2022-08-10T00:30:27.658Z,16.25
2022-08-10T00:31:27.647Z,16.13
2022-08-10T00:32:27.788Z,16.13
2022-08-10T00:33:27.626Z,16.14
2022-08-10T00:34:27.618Z,16.07
2022-08-10T00:35:27.601Z,16.07
2022-08-10T00:36:27.591Z,16.07
2022-08-10T00:37:27.578Z,16.11
2022-08-10T00:38:27.569Z,16.03
2022-08-10T00:39:27.621Z,15.98
2022-08-10T00:40:37.573Z,15.99
2022-08-10T00:41:28.606Z,15.92
2022-08-10T00:42:27.536Z,15.91
2022-08-10T00:43:27.508Z,15.86
2022-08-10T00:44:27.502Z,15.92
2022-08-10T00:45:27.485Z,15.89
2022-08-10T00:46:27.474Z,15.92
2022-08-10T00:47:36.695Z,15.91
2022-08-10T00:48:28.476Z,15.81
2022-08-10T00:49:27.439Z,15.86
2022-08-10T00:50:27.428Z,15.85
2022-08-10T00:51:40.434Z,15.86
2022-08-10T00:52:27.405Z,15.78
2022-08-10T00:53:27.392Z,15.88
2022-08-10T00:54:27.391Z,15.81
2022-08-10T00:55:27.372Z,15.77
2022-08-10T00:57:07.848Z,15.84
2022-08-10T00:57:28.370Z,15.74
2022-08-10T00:58:27.338Z,15.78
2022-08-10T00:59:27.326Z,15.77
2022-08-10T01:00:27.313Z,15.70
2022-08-10T01:02:09.108Z,15.71
2022-08-10T01:02:27.497Z,15.68
2022-08-10T01:04:42.056Z,15.74
2022-08-10T01:04:57.608Z,15.64
2022-08-10T01:05:28.281Z,15.59
2022-08-10T01:06:27.243Z,15.62
2022-08-10T01:07:27.231Z,15.60
2022-08-10T01:08:27.226Z,15.59
2022-08-10T01:09:27.210Z,15.60
2022-08-10T01:10:27.211Z,15.68
2022-08-10T01:12:28.689Z,15.59
2022-08-10T01:12:40.492Z,15.64
2022-08-10T01:13:28.190Z,15.56
2022-08-10T01:14:27.157Z,15.58
2022-08-10T01:15:27.141Z,15.59
2022-08-10T01:16:27.135Z,15.56
2022-08-10T01:17:49.832Z,15.49
2022-08-10T01:18:28.133Z,15.43
2022-08-10T01:19:27.098Z,15.40
2022-08-10T01:20:31.051Z,15.40
2022-08-10T01:21:27.078Z,15.35
2022-08-10T01:22:27.136Z,15.34
2022-08-10T01:23:27.053Z,15.40
2022-08-10T01:24:27.041Z,15.38
2022-08-10T01:25:27.029Z,15.34
2022-08-10T01:26:31.112Z,15.38
2022-08-10T01:27:27.433Z,15.40
2022-08-10T01:28:26.999Z,15.34
2022-08-10T01:29:26.986Z,15.23
2022-08-10T01:30:26.976Z,15.28
2022-08-10T01:31:26.966Z,15.30
2022-08-10T01:32:27.092Z,15.28
2022-08-10T01:33:31.796Z,15.35
2022-08-10T01:34:27.953Z,15.30
2022-08-10T01:35:26.920Z,15.35
2022-08-10T01:36:32.493Z,15.31
2022-08-10T01:37:26.895Z,15.34
2022-08-10T01:38:26.885Z,15.37
2022-08-10T01:39:26.984Z,15.33
2022-08-10T01:40:26.864Z,15.34
2022-08-10T01:41:26.854Z,15.38
2022-08-10T01:42:26.954Z,15.33
2022-08-10T01:43:26.829Z,15.33
2022-08-10T01:44:26.822Z,15.27
2022-08-10T01:45:26.809Z,15.22
2022-08-10T01:46:26.851Z,15.15
2022-08-10T01:47:27.402Z,15.13
2022-08-10T01:48:26.780Z,15.07
2022-08-10T01:49:26.766Z,15.12
2022-08-10T01:50:26.758Z,15.13
2022-08-10T01:51:26.792Z,15.07
2022-08-10T01:52:26.740Z,15.12
2022-08-10T01:53:26.723Z,15.09
2022-08-10T01:54:26.713Z,15.07
2022-08-10T01:55:26.701Z,15.03
2022-08-10T01:56:26.940Z,15.04
2022-08-10T01:57:26.679Z,15.09
2022-08-10T01:58:26.673Z,15.01
2022-08-10T01:59:26.667Z,15.07
2022-08-10T02:00:26.648Z,15.04
2022-08-10T02:01:26.885Z,14.98
2022-08-10T02:02:26.670Z,14.98
2022-08-10T02:03:26.614Z,14.93
2022-08-10T02:04:26.603Z,14.95
2022-08-10T02:05:26.590Z,14.93
2022-08-10T02:06:26.579Z,14.91
2022-08-10T02:07:26.573Z,14.87
2022-08-10T02:08:26.560Z,14.93
2022-08-10T02:09:26.546Z,14.95
2022-08-10T02:10:26.536Z,14.93
2022-08-10T02:11:26.524Z,14.91
2022-08-10T02:12:26.558Z,14.85
2022-08-10T02:13:26.504Z,14.82
2022-08-10T02:14:33.224Z,14.82
2022-08-10T02:15:27.506Z,14.86
2022-08-10T02:16:26.471Z,14.85
2022-08-10T02:17:59.593Z,14.82
2022-08-10T02:18:26.451Z,14.83
2022-08-10T02:19:26.436Z,14.80
2022-08-10T02:20:26.424Z,14.85
2022-08-10T02:21:26.414Z,14.79
2022-08-10T02:22:36.446Z,14.71
2022-08-10T02:23:27.417Z,14.72
2022-08-10T02:24:26.382Z,14.71
2022-08-10T02:25:41.774Z,14.66
2022-08-10T02:26:27.381Z,14.63
2022-08-10T02:27:26.345Z,14.69
2022-08-10T02:28:30.227Z,14.66
2022-08-10T02:29:26.322Z,14.57
2022-08-10T02:30:26.313Z,14.60
2022-08-10T02:31:26.302Z,14.56
2022-08-10T02:32:38.146Z,14.56
2022-08-10T02:33:27.304Z,14.59
2022-08-10T02:34:26.266Z,14.53
2022-08-10T02:35:26.253Z,14.52
2022-08-10T02:36:26.243Z,14.44
2022-08-10T02:37:26.240Z,14.48
2022-08-10T02:38:58.125Z,14.46
2022-08-10T02:39:27.291Z,14.49
2022-08-10T02:45:02.364Z,14.41
2022-08-10T02:45:13.864Z,14.38
2022-08-10T02:45:21.967Z,14.42
2022-08-10T02:45:22.799Z,14.38
2022-08-10T02:45:25.719Z,14.42
2022-08-10T02:45:31.137Z,14.36
2022-08-10T02:46:26.347Z,14.39
2022-08-10T02:47:26.119Z,14.38
2022-08-10T02:48:26.109Z,14.38
2022-08-10T02:49:26.095Z,14.39
2022-08-10T02:50:26.087Z,14.35
2022-08-10T02:52:06.695Z,14.30
2022-08-10T02:52:27.133Z,14.26
2022-08-10T02:53:54.976Z,14.21
2022-08-10T02:54:26.041Z,14.29
2022-08-10T02:55:27.145Z,14.29
2022-08-10T02:56:26.021Z,14.24
2022-08-10T02:57:26.005Z,14.23
2022-08-10T02:58:25.996Z,14.16
2022-08-10T02:59:25.982Z,14.13
2022-08-10T03:00:25.973Z,14.11
2022-08-10T03:01:26.060Z,14.20
2022-08-10T03:02:25.985Z,14.17
2022-08-10T03:03:25.938Z,14.17
2022-08-10T03:04:55.887Z,14.19
2022-08-10T03:05:25.915Z,14.20
2022-08-10T03:06:25.910Z,14.21
2022-08-10T03:07:43.320Z,14.12
2022-08-10T03:08:25.881Z,14.11
2022-08-10T03:09:25.868Z,13.99
2022-08-10T03:10:25.858Z,14.04
2022-08-10T03:12:35.347Z,14.02
2022-08-10T03:12:38.476Z,14.02
2022-08-10T03:13:25.825Z,13.96
2022-08-10T03:14:25.817Z,13.94
2022-08-10T03:15:25.803Z,13.96
2022-08-10T03:16:25.792Z,13.99
2022-08-10T03:17:25.780Z,14.01
2022-08-10T03:18:25.770Z,13.94
2022-08-10T03:20:35.560Z,13.96
2022-08-10T03:20:38.024Z,13.98
2022-08-10T03:21:26.760Z,13.94
2022-08-10T03:22:25.724Z,13.94
2022-08-10T03:23:25.713Z,13.96
2022-08-10T03:24:33.536Z,13.88
2022-08-10T03:25:25.688Z,13.87
2022-08-10T03:26:25.683Z,13.87
2022-08-10T03:27:25.668Z,13.88
2022-08-10T03:28:25.657Z,13.84
2022-08-10T03:29:25.643Z,13.90
2022-08-10T03:30:32.796Z,13.93
2022-08-10T03:31:25.620Z,13.91
2022-08-10T03:32:25.636Z,13.83
2022-08-10T03:33:25.605Z,13.84
2022-08-10T03:34:33.320Z,13.81
2022-08-10T03:35:25.577Z,13.81
2022-08-10T03:36:43.020Z,13.76
2022-08-10T03:37:25.553Z,13.81
2022-08-10T03:38:25.548Z,13.81
2022-08-10T03:39:25.573Z,13.75
2022-08-10T03:40:25.525Z,13.76
2022-08-10T03:41:25.509Z,13.71
2022-08-10T03:42:25.499Z,13.72
2022-08-10T03:43:25.485Z,13.68
2022-08-10T03:44:25.475Z,13.65
2022-08-10T03:45:25.462Z,13.71
2022-08-10T03:46:25.453Z,13.71
2022-08-10T03:47:25.439Z,13.76
2022-08-10T03:48:33.274Z,13.75
2022-08-10T03:49:25.420Z,13.75
2022-08-10T03:50:27.585Z,13.73
2022-08-10T03:51:25.395Z,13.73
2022-08-10T03:52:25.386Z,13.80
2022-08-10T03:54:02.423Z,13.75
2022-08-10T03:54:25.364Z,13.73
2022-08-10T03:56:27.315Z,13.75
2022-08-10T03:56:28.428Z,13.84
2022-08-10T03:57:25.331Z,13.83
2022-08-10T03:58:25.316Z,13.80
2022-08-10T03:59:25.303Z,13.71
2022-08-10T04:00:25.297Z,13.65
2022-08-10T04:02:43.940Z,13.68
2022-08-10T04:02:52.871Z,13.71
2022-08-10T04:03:25.263Z,13.66
2022-08-10T04:04:25.934Z,13.63
2022-08-10T04:05:25.237Z,13.81
2022-08-10T04:06:25.226Z,13.79
2022-08-10T04:07:25.377Z,13.76
2022-08-10T04:08:25.226Z,13.76
2022-08-10T04:09:42.966Z,13.81
2022-08-10T04:10:25.181Z,13.83
2022-08-10T04:11:25.169Z,13.79
2022-08-10T04:12:25.161Z,13.76
2022-08-10T04:13:25.146Z,13.81
2022-08-10T04:14:38.012Z,13.80
2022-08-10T04:15:26.156Z,13.81
2022-08-10T04:16:25.116Z,13.72
2022-08-10T04:17:56.728Z,13.76
2022-08-10T04:18:26.116Z,13.80
2022-08-10T04:19:25.079Z,13.76
2022-08-10T04:20:25.069Z,13.79
2022-08-10T04:21:25.062Z,13.73
2022-08-10T04:22:25.049Z,13.83
2022-08-10T04:23:25.034Z,13.83
2022-08-10T04:24:29.813Z,13.83
2022-08-10T04:25:25.014Z,13.80
2022-08-10T04:26:25.156Z,13.80
2022-08-10T04:27:24.992Z,13.84
2022-08-10T04:28:24.977Z,13.86
2022-08-10T04:29:24.966Z,13.93
2022-08-10T04:30:24.955Z,14.05
2022-08-10T04:31:24.945Z,14.02
2022-08-10T04:32:24.934Z,14.06
2022-08-10T04:33:24.924Z,14.09
2022-08-10T04:34:24.911Z,14.12
2022-08-10T04:35:24.901Z,14.12
2022-08-10T04:36:24.889Z,14.19
2022-08-10T04:37:24.879Z,14.23
2022-08-10T04:38:24.866Z,14.29
2022-08-10T04:39:24.887Z,14.30
2022-08-10T04:40:30.294Z,14.31
2022-08-10T04:41:25.868Z,14.39
2022-08-10T04:42:24.848Z,14.39
2022-08-10T04:43:24.812Z,14.46
2022-08-10T04:44:24.798Z,14.48
2022-08-10T04:45:24.789Z,14.45
2022-08-10T04:46:55.347Z,14.52
2022-08-10T04:47:57.295Z,14.53
2022-08-10T04:48:41.308Z,14.57
2022-08-10T04:49:52.172Z,14.64
2022-08-10T04:50:25.772Z,14.64
2022-08-10T04:51:24.727Z,14.71
2022-08-10T04:52:25.285Z,14.79
2022-08-10T04:53:24.705Z,14.85
2022-08-10T04:54:24.689Z,14.85
2022-08-10T04:55:24.682Z,14.86
2022-08-10T04:56:32.065Z,14.90
2022-08-10T04:57:25.705Z,15.00
2022-08-10T04:58:24.648Z,14.98
2022-08-10T04:59:24.649Z,15.07
2022-08-10T05:00:24.623Z,15.09
2022-08-10T05:01:25.117Z,15.15
2022-08-10T05:02:31.291Z,15.12
2022-08-10T05:03:24.593Z,15.15
2022-08-10T05:04:36.624Z,15.13
2022-08-10T05:05:25.594Z,15.19
2022-08-10T05:06:24.563Z,15.15
2022-08-10T05:07:24.549Z,15.13
2022-08-10T05:08:24.537Z,15.23
2022-08-10T05:09:24.539Z,15.20
2022-08-10T05:10:24.511Z,15.31
2022-08-10T05:11:24.512Z,15.33
2022-08-10T05:12:24.489Z,15.38
2022-08-10T05:13:24.480Z,15.43
2022-08-10T05:14:24.464Z,15.51
2022-08-10T05:15:24.471Z,15.76
2022-08-10T05:16:32.056Z,16.06
2022-08-10T05:17:25.458Z,16.34
2022-08-10T05:18:24.419Z,16.69
2022-08-10T05:20:03.031Z,16.95
2022-08-10T05:20:25.422Z,17.06
2022-08-10T05:21:59.855Z,16.98
2022-08-10T05:22:25.399Z,16.99
2022-08-10T05:23:24.416Z,17.09
2022-08-10T05:24:24.354Z,17.30
2022-08-10T05:25:24.344Z,17.43
2022-08-10T05:26:24.330Z,17.57
2022-08-10T05:27:24.326Z,17.79
2022-08-10T05:28:24.310Z,17.95
2022-08-10T05:29:25.321Z,18.17
2022-08-10T05:30:24.285Z,18.25
2022-08-10T05:31:24.310Z,18.46
2022-08-10T05:32:24.264Z,18.57
2022-08-10T05:33:24.256Z,18.68
2022-08-10T05:34:24.243Z,18.69
2022-08-10T05:35:24.301Z,18.59
2022-08-10T05:36:24.221Z,18.66
2022-08-10T05:38:10.951Z,18.71
2022-08-10T05:38:24.202Z,18.62
2022-08-10T05:39:28.833Z,18.60
2022-08-10T05:40:24.175Z,18.53
2022-08-10T05:41:24.163Z,18.53
2022-08-10T05:42:24.150Z,18.54
2022-08-10T05:43:24.173Z,18.50
2022-08-10T05:44:24.131Z,18.41
2022-08-10T05:45:24.123Z,18.41
2022-08-10T05:46:24.106Z,18.32
2022-08-10T05:47:24.148Z,18.35
2022-08-10T05:48:55.067Z,18.36
2022-08-10T05:49:24.075Z,18.49
2022-08-10T05:50:24.065Z,18.65
2022-08-10T05:51:24.051Z,18.93
2022-08-10T05:52:24.041Z,19.17
2022-08-10T05:54:02.530Z,19.39
2022-08-10T05:54:24.017Z,19.53
2022-08-10T05:55:24.020Z,19.79
2022-08-10T05:56:24.006Z,19.98
2022-08-10T05:57:24.008Z,20.13
2022-08-10T05:58:23.995Z,20.10
2022-08-10T06:00:35.831Z,20.01
2022-08-10T06:00:37.305Z,19.61
2022-08-10T06:01:24.008Z,19.38
2022-08-10T06:02:34.099Z,19.16
2022-08-10T06:03:24.351Z,19.16
2022-08-10T06:04:23.908Z,19.17
2022-08-10T06:05:23.896Z,19.05
2022-08-10T06:06:24.959Z,19.15
2022-08-10T06:07:23.876Z,19.23
2022-08-10T06:08:23.861Z,19.24
2022-08-10T06:09:23.852Z,19.12
2022-08-10T06:10:32.631Z,19.01
2022-08-10T06:12:23.762Z,18.96
2022-08-10T06:12:28.589Z,18.89
2022-08-10T06:13:30.694Z,18.96
2022-08-10T06:14:28.560Z,18.97
2022-08-10T06:15:51.929Z,19.02
2022-08-10T06:16:23.774Z,19.09
2022-08-10T06:17:23.764Z,19.13
2022-08-10T06:18:23.754Z,19.05
2022-08-10T06:19:23.747Z,19.02
2022-08-10T06:20:23.729Z,19.09
2022-08-10T06:21:23.717Z,18.97
2022-08-10T06:22:23.708Z,18.90
2022-08-10T06:23:23.783Z,18.89
2022-08-10T06:24:25.274Z,18.90
2022-08-10T06:26:11.669Z,18.87
2022-08-10T06:26:24.685Z,18.89
2022-08-10T06:27:34.568Z,18.84
2022-08-10T06:28:24.691Z,18.94
2022-08-10T06:29:23.628Z,18.99
2022-08-10T06:30:23.615Z,19.13
2022-08-10T06:31:23.604Z,19.16
2022-08-10T06:32:23.592Z,19.23
2022-08-10T06:33:23.583Z,19.13
2022-08-10T06:34:23.685Z,19.21
2022-08-10T06:35:23.560Z,19.20
2022-08-10T06:36:23.564Z,19.30
2022-08-10T06:37:23.534Z,19.38
2022-08-10T06:38:23.523Z,19.47
2022-08-10T06:39:33.392Z,19.57
2022-08-10T06:40:24.664Z,19.67
2022-08-10T06:41:23.488Z,19.72
2022-08-10T06:42:24.503Z,19.71
2022-08-10T06:43:23.467Z,19.68
2022-08-10T06:44:23.456Z,19.62
2022-08-10T06:45:23.499Z,19.61
2022-08-10T06:46:23.436Z,19.71
2022-08-10T06:47:23.518Z,19.79
2022-08-10T06:48:23.412Z,19.87
2022-08-10T06:49:23.402Z,19.97
2022-08-10T06:50:34.833Z,20.01
2022-08-10T06:51:24.467Z,20.16
2022-08-10T06:52:23.369Z,20.17
2022-08-10T06:53:23.360Z,20.37
2022-08-10T06:54:23.343Z,20.40
2022-08-10T06:55:23.391Z,20.56
2022-08-10T06:56:36.861Z,20.71
2022-08-10T06:57:24.336Z,20.82
2022-08-10T06:58:26.589Z,21.00
2022-08-10T06:59:23.296Z,21.28
2022-08-10T07:00:23.365Z,21.53
2022-08-10T07:01:24.556Z,21.73
2022-08-10T07:02:23.257Z,21.90
2022-08-10T07:03:23.249Z,22.01
2022-08-10T07:04:32.395Z,22.17
2022-08-10T07:05:23.275Z,22.30
2022-08-10T07:06:23.461Z,22.42
2022-08-10T07:07:23.296Z,22.59
2022-08-10T07:08:23.348Z,22.66
2022-08-10T07:09:23.339Z,22.84
2022-08-10T07:10:23.452Z,23.15
2022-08-10T07:11:23.347Z,23.26
2022-08-10T07:12:23.147Z,23.26
2022-08-10T07:14:15.824Z,23.25
2022-08-10T07:14:23.172Z,23.59
2022-08-10T07:15:23.154Z,23.82
2022-08-10T07:16:23.100Z,23.90
2022-08-10T07:17:23.110Z,24.19
2022-08-10T07:18:23.126Z,24.33
2022-08-10T07:19:23.069Z,24.52
2022-08-10T07:20:23.059Z,24.63
2022-08-10T07:21:23.047Z,24.80
2022-08-10T07:23:01.650Z,24.83
2022-08-10T07:23:55.698Z,24.63
2022-08-10T07:24:24.149Z,24.49
2022-08-10T07:25:23.007Z,24.44
2022-08-10T07:26:22.992Z,24.61
2022-08-10T07:27:22.983Z,24.82
2022-08-10T07:28:22.977Z,25.04
2022-08-10T07:29:26.622Z,25.26
2022-08-10T07:30:22.950Z,25.42
2022-08-10T07:31:31.144Z,25.59
2022-08-10T07:32:22.929Z,25.74
2022-08-10T07:33:22.918Z,25.91
2022-08-10T07:34:29.341Z,25.85
2022-08-10T07:35:24.014Z,25.79
2022-08-10T07:36:22.884Z,25.64
2022-08-10T07:37:22.874Z,25.54
2022-08-10T07:38:22.862Z,25.54
2022-08-10T07:40:03.789Z,25.64
2022-08-10T07:40:23.175Z,25.75
2022-08-10T07:41:22.833Z,25.96
2022-08-10T07:42:22.818Z,25.96
2022-08-10T07:43:22.809Z,25.89
2022-08-10T07:44:22.798Z,26.00
2022-08-10T07:45:22.793Z,26.12
2022-08-10T07:46:22.778Z,25.89
2022-08-10T07:47:53.207Z,26.00
2022-08-10T07:48:23.786Z,25.85
2022-08-10T07:49:22.753Z,26.09
2022-08-10T07:50:22.792Z,25.94
2022-08-10T07:51:22.726Z,25.46
2022-08-10T07:52:22.716Z,25.76
2022-08-10T07:53:22.707Z,26.13
2022-08-10T07:54:22.689Z,26.44
2022-08-10T07:56:05.099Z,26.76
2022-08-10T07:56:45.819Z,27.03
2022-08-10T07:57:30.749Z,27.02
2022-08-10T07:58:23.676Z,26.94
2022-08-10T07:59:22.641Z,26.79
2022-08-10T08:00:22.644Z,27.08
2022-08-10T08:01:22.745Z,27.15
2022-08-10T08:02:22.609Z,27.06
2022-08-10T08:03:22.599Z,27.03
2022-08-10T08:04:22.587Z,27.25
2022-08-10T08:05:57.467Z,27.61
2022-08-10T08:06:23.620Z,27.55
2022-08-10T08:07:22.572Z,27.78
2022-08-10T08:08:22.583Z,27.83
2022-08-10T08:09:22.543Z,27.84
2022-08-10T08:10:22.526Z,27.61
2022-08-10T08:11:26.129Z,27.61
2022-08-10T08:12:22.508Z,27.72
2022-08-10T08:13:22.494Z,27.61
2022-08-10T08:14:22.485Z,27.81
2022-08-10T08:16:20.612Z,28.11
2022-08-10T08:16:22.517Z,28.30
2022-08-10T08:17:22.453Z,28.45
2022-08-10T08:18:25.353Z,27.95
2022-08-10T08:19:35.437Z,27.33
2022-08-10T08:20:23.446Z,27.42
2022-08-10T08:24:06.836Z,28.30
2022-08-10T08:24:07.661Z,27.87
2022-08-10T08:24:07.807Z,28.57
2022-08-10T08:24:33.110Z,28.52
2022-08-10T08:25:23.392Z,28.74
2022-08-10T08:26:22.357Z,29.00
2022-08-10T08:27:22.349Z,29.02
2022-08-10T08:28:22.338Z,29.10
2022-08-10T08:29:22.529Z,29.10
2022-08-10T08:30:27.805Z,28.72
2022-08-10T08:31:22.315Z,28.45
2022-08-10T08:32:22.315Z,28.58
2022-08-10T08:33:42.182Z,28.74
2022-08-10T08:34:23.299Z,28.51
2022-08-10T08:35:22.269Z,28.24
2022-08-10T08:36:22.259Z,28.64
2022-08-10T08:38:31.054Z,29.08
2022-08-10T08:38:33.086Z,28.70
2022-08-10T08:39:22.296Z,29.41
2022-08-10T08:40:22.256Z,29.55
2022-08-10T08:41:22.210Z,29.12
2022-08-10T08:42:22.200Z,29.18
2022-08-10T08:43:22.189Z,29.27
2022-08-10T08:44:22.195Z,29.23
2022-08-10T08:45:22.185Z,28.64
2022-08-10T08:46:22.170Z,28.40
2022-08-10T08:48:03.313Z,27.98
2022-08-10T08:48:22.140Z,27.87
2022-08-10T08:50:04.559Z,28.38
2022-08-10T08:50:23.405Z,28.76
2022-08-10T08:52:09.539Z,29.00
2022-08-10T08:52:23.121Z,29.41
2022-08-10T08:53:22.668Z,29.30
2022-08-10T08:54:22.108Z,29.64
2022-08-10T08:56:04.420Z,29.78
2022-08-10T08:56:23.090Z,29.57
2022-08-10T08:57:23.689Z,29.58
2022-08-10T08:58:22.038Z,29.78
2022-08-10T08:59:22.025Z,30.11
2022-08-10T09:00:22.015Z,30.36
2022-08-10T09:01:22.083Z,30.70
2022-08-10T09:02:21.994Z,30.85
2022-08-10T09:03:26.238Z,31.10
2022-08-10T09:04:23.001Z,31.00
2022-08-10T09:05:21.967Z,30.76
2022-08-10T09:06:21.960Z,30.72
2022-08-10T09:07:59.356Z,30.86
2022-08-10T09:08:21.955Z,31.32
2022-08-10T09:09:21.924Z,31.74
2022-08-10T09:10:21.914Z,31.64
2022-08-10T09:11:21.907Z,31.22
2022-08-10T09:12:21.897Z,31.40
2022-08-10T09:13:21.884Z,31.50
2022-08-10T09:14:25.539Z,31.62
2022-08-10T09:15:39.488Z,31.41
2022-08-10T09:16:22.882Z,30.96
2022-08-10T09:17:21.875Z,30.93
2022-08-10T09:18:21.838Z,31.16
2022-08-10T09:19:35.327Z,31.35
2022-08-10T09:20:21.821Z,31.22
2022-08-10T09:21:21.811Z,30.53
2022-08-10T09:22:21.795Z,30.16
2022-08-10T09:23:21.788Z,30.48
2022-08-10T09:24:21.774Z,30.73
2022-08-10T09:25:21.796Z,30.70
2022-08-10T09:26:21.755Z,30.78
2022-08-10T09:27:21.788Z,30.88
2022-08-10T09:28:21.777Z,31.22
2022-08-10T09:29:21.721Z,31.32
2022-08-10T09:30:28.360Z,31.18
2022-08-10T09:31:23.135Z,30.45
2022-08-10T09:36:14.870Z,30.49
2022-08-10T09:36:20.167Z,30.90
2022-08-10T09:36:21.269Z,31.03
2022-08-10T09:36:21.418Z,31.01
2022-08-10T09:36:33.371Z,31.30
2022-08-10T09:37:21.661Z,30.88
2022-08-10T09:38:21.636Z,30.81
2022-08-10T09:40:12.284Z,31.15
2022-08-10T09:41:02.256Z,30.88
2022-08-10T09:41:21.648Z,30.91
2022-08-10T09:42:21.596Z,31.37
2022-08-10T09:43:25.418Z,31.67
2022-08-10T09:44:21.574Z,31.88
2022-08-10T09:45:21.563Z,32.17
2022-08-10T09:46:21.602Z,32.56
2022-08-10T09:47:21.569Z,32.65
2022-08-10T09:48:22.580Z,33.00
2022-08-10T09:49:25.870Z,32.87
2022-08-10T09:50:22.586Z,32.34
2022-08-10T09:51:44.905Z,31.82
2022-08-10T09:52:22.532Z,31.76
2022-08-10T09:53:21.489Z,31.37
2022-08-10T09:54:21.483Z,31.15
2022-08-10T09:55:21.470Z,31.92
2022-08-10T09:56:26.766Z,32.63
2022-08-10T09:57:44.401Z,32.95
2022-08-10T09:58:22.475Z,32.90
2022-08-10T09:59:59.316Z,32.81
2022-08-10T10:00:21.425Z,32.61
2022-08-10T10:01:23.592Z,32.69
2022-08-10T10:02:22.425Z,32.87
2022-08-10T10:03:25.817Z,32.84
2022-08-10T10:04:21.383Z,32.63
2022-08-10T10:05:21.377Z,33.14
2022-08-10T10:06:21.362Z,33.00
2022-08-10T10:07:21.351Z,33.12
2022-08-10T10:08:21.359Z,33.44
2022-08-10T10:09:26.842Z,33.33
2022-08-10T10:10:21.322Z,32.93
2022-08-10T10:11:21.309Z,32.44
2022-08-10T10:12:21.299Z,32.43
2022-08-10T10:13:52.886Z,32.47
2022-08-10T10:14:22.354Z,32.16
2022-08-10T10:15:24.681Z,32.39
2022-08-10T10:16:21.262Z,32.90
2022-08-10T10:17:21.247Z,33.24
2022-08-10T10:18:21.240Z,33.18
2022-08-10T10:19:21.287Z,33.35
2022-08-10T10:20:21.247Z,33.18
2022-08-10T10:21:52.299Z,33.57
2022-08-10T10:22:21.205Z,33.75
2022-08-10T10:23:21.193Z,33.22
2022-08-10T10:24:22.831Z,32.62
2022-08-10T10:25:21.530Z,32.32
2022-08-10T10:26:21.160Z,32.78
2022-08-10T10:27:21.151Z,33.11
2022-08-10T10:28:21.145Z,32.91
2022-08-10T10:29:56.308Z,32.85
2022-08-10T10:30:22.173Z,32.80
2022-08-10T10:31:21.111Z,33.35
2022-08-10T10:32:21.105Z,33.68
2022-08-10T10:33:21.093Z,33.87
2022-08-10T10:34:21.088Z,34.11
2022-08-10T10:35:21.077Z,34.40
2022-08-10T10:36:21.066Z,34.30
2022-08-10T10:37:21.052Z,33.63
2022-08-10T10:38:21.047Z,34.11
2022-08-10T10:39:24.062Z,34.38
2022-08-10T10:40:21.025Z,34.63
2022-08-10T10:41:21.019Z,34.67
2022-08-10T10:42:44.182Z,34.55
2022-08-10T10:43:22.019Z,34.33
2022-08-10T10:44:20.989Z,33.77
2022-08-10T10:45:20.978Z,33.66
2022-08-10T10:46:23.193Z,33.84
2022-08-10T10:47:20.958Z,33.94
2022-08-10T10:48:24.238Z,34.31
2022-08-10T10:49:20.938Z,34.65
2022-08-10T10:50:20.933Z,34.60
2022-08-10T10:51:20.918Z,35.17
2022-08-10T10:52:20.914Z,35.10
2022-08-10T10:53:20.997Z,35.21
2022-08-10T10:54:20.897Z,35.13
2022-08-10T10:55:20.880Z,35.00
2022-08-10T10:56:20.873Z,35.31
2022-08-10T10:57:20.859Z,35.68
2022-08-10T10:58:24.214Z,35.50
2022-08-10T10:59:53.891Z,35.47
2022-08-10T11:00:21.862Z,35.68
2022-08-10T11:01:20.874Z,34.90
2022-08-10T11:02:20.819Z,35.02
2022-08-10T11:03:20.809Z,35.10
2022-08-10T11:04:20.877Z,35.46
2022-08-10T11:05:20.793Z,35.85
2022-08-10T11:06:20.785Z,36.28
2022-08-10T11:07:21.967Z,36.50
2022-08-10T11:08:20.765Z,36.02
2022-08-10T11:10:07.960Z,35.93
2022-08-10T11:10:32.870Z,36.08
2022-08-10T11:12:02.007Z,36.27
2022-08-10T11:12:26.127Z,35.96
2022-08-10T11:14:26.589Z,35.89
2022-08-10T11:14:28.536Z,36.21
2022-08-10T11:15:20.705Z,36.00
2022-08-10T11:16:20.689Z,36.18
2022-08-10T11:17:20.677Z,36.25
2022-08-10T11:18:20.673Z,35.92
2022-08-10T11:19:20.659Z,36.35
2022-08-10T11:20:20.651Z,36.60
2022-08-10T11:21:20.643Z,36.41
2022-08-10T11:22:20.632Z,36.38
2022-08-10T11:23:20.621Z,36.48
2022-08-10T11:24:48.836Z,36.78
2022-08-10T11:25:20.719Z,36.93
2022-08-10T11:26:20.614Z,36.41
2022-08-10T11:27:22.009Z,36.50
2022-08-10T11:28:20.578Z,36.93
2022-08-10T11:29:20.564Z,37.30
2022-08-10T11:30:20.710Z,37.56
2022-08-10T11:31:20.543Z,37.13
2022-08-10T11:32:21.347Z,36.90
2022-08-10T11:33:30.581Z,36.33
2022-08-10T11:34:47.075Z,36.59
2022-08-10T11:35:20.521Z,37.13
2022-08-10T11:36:20.545Z,37.18
2022-08-10T11:37:20.483Z,36.87
2022-08-10T11:38:31.230Z,36.77
2022-08-10T11:39:21.542Z,36.35
2022-08-10T11:40:20.458Z,35.91
2022-08-10T11:42:09.752Z,35.69
2022-08-10T11:42:31.663Z,36.02
2022-08-10T11:43:21.445Z,36.19
2022-08-10T11:44:20.427Z,36.08
2022-08-10T11:45:20.407Z,35.84
2022-08-10T11:46:28.463Z,35.85
2022-08-10T11:47:21.419Z,35.13
2022-08-10T11:48:54.227Z,34.81
2022-08-10T11:49:21.394Z,34.58
2022-08-10T11:50:20.362Z,35.29
2022-08-10T11:51:20.349Z,35.78
2022-08-10T11:52:20.342Z,36.13
2022-08-10T11:53:20.342Z,36.49
2022-08-10T11:54:20.327Z,37.08
2022-08-10T11:55:20.347Z,37.02
2022-08-10T11:56:20.369Z,37.01
2022-08-10T11:57:21.248Z,36.97
2022-08-10T11:58:20.285Z,37.08
2022-08-10T11:59:20.273Z,37.25
2022-08-10T12:00:20.269Z,37.04
2022-08-10T12:01:20.253Z,37.02
2022-08-10T12:02:20.327Z,37.15
2022-08-10T12:03:20.232Z,36.89
2022-08-10T12:04:20.228Z,37.05
2022-08-10T12:05:20.216Z,36.96
2022-08-10T12:06:39.328Z,36.37
2022-08-10T12:09:24.025Z,35.93
2022-08-10T12:10:02.098Z,35.58
2022-08-10T12:10:09.364Z,35.07
2022-08-10T12:10:20.168Z,34.99
2022-08-10T12:11:24.534Z,35.46
2022-08-10T12:12:20.150Z,35.87
2022-08-10T12:13:20.141Z,36.64
2022-08-10T12:14:22.173Z,37.27
2022-08-10T12:15:20.125Z,37.46
2022-08-10T12:16:20.151Z,37.59
2022-08-10T12:17:20.097Z,36.77
2022-08-10T12:18:20.094Z,36.15
2022-08-10T12:19:20.080Z,35.87
2022-08-10T12:20:20.067Z,35.92
2022-08-10T12:21:21.570Z,36.22
2022-08-10T12:22:20.052Z,36.86
2022-08-10T12:23:20.042Z,37.34
2022-08-10T12:24:20.031Z,37.54
2022-08-10T12:25:56.927Z,37.77
2022-08-10T12:26:20.047Z,38.04
2022-08-10T12:27:20.023Z,37.84
2022-08-10T12:28:19.993Z,37.78
2022-08-10T12:29:24.833Z,37.84
2022-08-10T12:30:20.055Z,38.07
2022-08-10T12:31:19.961Z,38.28
2022-08-10T12:32:25.501Z,38.53
2022-08-10T12:33:19.966Z,38.65
2022-08-10T12:34:19.943Z,38.16
2022-08-10T12:35:21.846Z,37.87
2022-08-10T12:36:19.977Z,38.12
2022-08-10T12:37:19.959Z,38.00
2022-08-10T12:38:19.900Z,37.72
2022-08-10T12:39:19.980Z,37.60
2022-08-10T12:40:36.697Z,36.96
2022-08-10T12:41:43.393Z,36.79
2022-08-10T12:42:37.012Z,37.05
2022-08-10T12:44:06.250Z,37.40
2022-08-10T12:44:20.866Z,37.01
2022-08-10T12:45:21.143Z,37.20
2022-08-10T12:46:19.824Z,37.33
2022-08-10T12:47:19.833Z,37.69
2022-08-10T12:48:19.798Z,37.58
2022-08-10T12:49:19.792Z,36.49
2022-08-10T12:50:30.772Z,36.15
2022-08-10T12:51:20.811Z,36.53
2022-08-10T12:52:19.766Z,36.00